Time;durP1;ratioP1;P1;durP2;ratioP2;P2;SDS_P1;SDS_P2;PMS_P1;PMS_P2;Temp;Humidity;BMP_temperature;BMP_pressure;BME280_temperature;BME280_humidity;BME280_pressure;Samples;Min_cycle;Max_cycle;Signal;HPM_P1;HPM_P2
2023/10/17 00:01:44;;;;;;;1999.90;999.90;;;8.20;99.90;;;;;;5111891;28;20976;-67
2023/10/17 00:06:46;;;;;;;1999.90;999.90;;;8.20;99.90;;;;;;5111794;28;20890;-67
2023/10/17 00:09:21;;;;;;;1999.90;999.90;;;8.20;99.90;;;;;;5111619;28;20413;-66
2023/10/17 00:12:51;;;;;;;1999.90;999.90;;;8.20;99.90;;;;;;5111673;28;20437;-67
2023/10/17 00:17:20;;;;;;;1999.90;999.90;;;8.10;99.90;;;;;;5111759;28;20402;-66
2023/10/17 00:19:49;;;;;;;1999.90;999.90;;;8.10;99.90;;;;;;5111902;28;20179;-66
2023/10/17 00:22:23;;;;;;;1999.90;999.90;;;8.10;99.90;;;;;;5111644;28;20462;-66
2023/10/17 00:24:57;;;;;;;1999.90;999.90;;;8.10;99.90;;;;;;5113187;28;20414;-67
2023/10/17 00:27:23;;;;;;;1999.90;999.90;;;8.10;99.90;;;;;;5115533;28;20881;-66
2023/10/17 00:29:49;;;;;;;1999.90;999.90;;;8.10;99.90;;;;;;5115257;28;20501;-66
2023/10/17 00:32:14;;;;;;;1999.90;999.90;;;8.10;99.90;;;;;;5115543;28;20220;-66
2023/10/17 00:34:40;;;;;;;1999.90;999.90;;;8.10;99.90;;;;;;5115402;28;20404;-67
2023/10/17 00:37:10;;;;;;;1999.90;999.90;;;8.20;99.90;;;;;;5114147;28;20191;-66
2023/10/17 00:39:36;;;;;;;1999.90;999.90;;;8.20;99.90;;;;;;5115101;28;20438;-66
2023/10/17 00:44:36;;;;;;;1999.90;999.90;;;8.20;99.90;;;;;;5115138;28;20424;-67
2023/10/17 00:47:03;;;;;;;1999.90;999.90;;;8.20;99.90;;;;;;5114886;28;20454;-67
2023/10/17 00:49:30;;;;;;;1999.90;999.90;;;8.10;99.90;;;;;;5114843;28;20404;-67
2023/10/17 00:52:03;;;;;;;1999.90;999.90;;;8.10;99.90;;;;;;5115087;28;20423;-67
2023/10/17 00:54:31;;;;;;;1999.90;999.90;;;8.10;99.90;;;;;;5114973;28;20394;-69
2023/10/17 00:57:00;;;;;;;1999.90;999.90;;;8.10;99.90;;;;;;5114782;28;20432;-66
2023/10/17 00:59:29;;;;;;;1999.90;999.90;;;8.10;99.90;;;;;;5114946;28;20405;-66
2023/10/17 01:01:56;;;;;;;1999.90;999.90;;;8.10;99.90;;;;;;5114721;28;20923;-66
2023/10/17 01:04:24;;;;;;;1999.90;999.90;;;8.20;99.90;;;;;;5114845;28;20401;-66
2023/10/17 01:07:05;;;;;;;1999.90;999.90;;;8.10;99.90;;;;;;5114646;28;20538;-66
2023/10/17 01:09:35;;;;;;;1999.90;999.90;;;8.10;99.90;;;;;;5114457;28;20784;-67
2023/10/17 01:12:01;;;;;;;1999.90;999.90;;;8.20;99.90;;;;;;5114653;28;20439;-66
2023/10/17 01:14:27;;;;;;;1999.90;999.90;;;8.20;99.90;;;;;;5114731;28;20841;-67
2023/10/17 01:16:53;;;;;;;1999.90;999.90;;;8.20;99.90;;;;;;5114491;28;20411;-67
2023/10/17 01:19:19;;;;;;;1999.90;999.90;;;8.20;99.90;;;;;;5114310;28;20406;-67
2023/10/17 01:21:45;;;;;;;1999.90;999.90;;;8.20;99.90;;;;;;5114427;28;20227;-66
2023/10/17 01:24:12;;;;;;;1999.90;999.90;;;8.20;99.90;;;;;;5114319;28;20408;-66
2023/10/17 01:26:38;;;;;;;1999.90;999.90;;;8.20;99.90;;;;;;5114238;28;20448;-66
2023/10/17 01:29:10;;;;;;;1999.90;999.90;;;8.20;99.90;;;;;;5114077;28;20426;-67
2023/10/17 01:31:38;;;;;;;1999.90;999.90;;;8.30;99.90;;;;;;5114351;28;20421;-67
2023/10/17 01:34:05;;;;;;;1999.90;999.90;;;8.20;99.90;;;;;;5114164;28;20414;-66
2023/10/17 01:36:31;;;;;;;1999.90;999.90;;;8.20;99.90;;;;;;5113667;28;20543;-67
2023/10/17 01:38:56;;;;;;;1999.90;999.90;;;8.20;99.90;;;;;;5113878;28;20864;-66
2023/10/17 01:41:22;;;;;;;1999.90;999.90;;;8.20;99.90;;;;;;5114201;28;20193;-66
2023/10/17 01:43:48;;;;;;;1999.90;999.90;;;8.20;99.90;;;;;;5113978;28;20166;-67
2023/10/17 01:46:24;;;;;;;1999.90;999.90;;;8.30;99.90;;;;;;5113962;28;20215;-66
2023/10/17 01:48:54;;;;;;;1999.90;999.90;;;8.20;99.90;;;;;;5113812;28;20402;-66
2023/10/17 01:51:20;;;;;;;1999.90;999.90;;;8.10;99.90;;;;;;5113775;28;20420;-66
2023/10/17 01:53:50;;;;;;;1999.90;999.90;;;8.10;99.90;;;;;;5113628;28;20434;-66
2023/10/17 01:56:18;;;;;;;1999.90;999.90;;;8.10;99.90;;;;;;5113853;28;20469;-66
2023/10/17 01:59:04;;;;;;;1999.90;999.90;;;8.10;99.90;;;;;;5113472;28;20392;-67
2023/10/17 02:01:31;;;;;;;1999.90;999.90;;;8.10;99.90;;;;;;5113651;28;20936;-66
2023/10/17 02:04:02;;;;;;;1999.90;999.90;;;8.10;99.90;;;;;;5113568;28;20450;-67
2023/10/17 02:06:28;;;;;;;1999.90;999.90;;;8.00;99.90;;;;;;5113641;28;20807;-67
2023/10/17 02:08:58;;;;;;;1999.90;999.90;;;8.00;99.90;;;;;;5113410;28;20416;-66
2023/10/17 02:11:25;;;;;;;1999.90;999.90;;;8.00;99.90;;;;;;5113360;28;20455;-67
2023/10/17 02:13:57;;;;;;;1999.90;999.90;;;8.00;99.90;;;;;;5113398;28;20411;-66
2023/10/17 02:16:32;;;;;;;1999.90;999.90;;;8.00;99.90;;;;;;5113274;28;20410;-66
2023/10/17 02:18:58;;;;;;;1999.90;999.90;;;8.00;99.90;;;;;;5113312;28;20816;-66
2023/10/17 02:21:27;;;;;;;1999.90;999.90;;;8.00;99.90;;;;;;5113111;28;20432;-67
2023/10/17 02:23:53;;;;;;;1999.90;999.90;;;8.10;99.90;;;;;;5113258;28;20412;-66
2023/10/17 02:26:22;;;;;;;1999.90;999.90;;;8.10;99.90;;;;;;5112878;28;20405;-66
2023/10/17 02:28:58;;;;;;;1999.90;999.90;;;8.10;99.90;;;;;;5112885;28;20176;-67
2023/10/17 02:31:28;;;;;;;1999.90;999.90;;;8.10;99.90;;;;;;5113199;28;20796;-66
2023/10/17 02:33:56;;;;;;;1999.90;999.90;;;8.10;99.90;;;;;;5112995;28;20409;-66
2023/10/17 02:36:22;;;;;;;1999.90;999.90;;;8.10;99.90;;;;;;5112835;28;20412;-67
2023/10/17 02:38:49;;;;;;;1999.90;999.90;;;8.10;99.90;;;;;;5112851;28;20792;-67
2023/10/17 02:41:28;;;;;;;1999.90;999.90;;;8.10;99.90;;;;;;5112759;28;20924;-66
2023/10/17 02:43:55;;;;;;;1999.90;999.90;;;8.10;99.90;;;;;;5112822;28;20405;-67
2023/10/17 02:46:33;;;;;;;1999.90;999.90;;;8.10;99.90;;;;;;5112639;28;20410;-67
2023/10/17 02:49:00;;;;;;;1999.90;999.90;;;8.10;99.90;;;;;;5112265;28;20430;-66
2023/10/17 02:53:53;;;;;;;1999.90;999.90;;;8.10;99.90;;;;;;5112594;28;20969;-67
2023/10/17 02:56:19;;;;;;;1999.90;999.90;;;8.10;99.90;;;;;;5112752;28;20304;-66
2023/10/17 02:59:06;;;;;;;1999.90;999.90;;;8.10;99.90;;;;;;5112560;28;20982;-67
2023/10/17 03:01:32;;;;;;;1999.90;999.90;;;8.10;99.90;;;;;;5112071;28;20447;-66
2023/10/17 03:04:02;;;;;;;1999.90;999.90;;;8.10;99.90;;;;;;5112662;28;20407;-67
2023/10/17 03:06:28;;;;;;;1999.90;999.90;;;8.10;99.90;;;;;;5112530;28;20411;-67
2023/10/17 03:09:00;;;;;;;1999.90;999.90;;;8.00;99.90;;;;;;5112403;28;20760;-66
2023/10/17 03:11:35;;;;;;;1999.90;999.90;;;8.00;99.90;;;;;;5112360;28;20216;-66
2023/10/17 03:14:12;;;;;;;1999.90;999.90;;;8.00;99.90;;;;;;5112423;28;20410;-66
2023/10/17 03:16:42;;;;;;;1999.90;999.90;;;7.90;99.90;;;;;;5112383;28;20409;-66
2023/10/17 03:19:08;;;;;;;1999.90;999.90;;;8.00;99.90;;;;;;5112367;28;20408;-66
2023/10/17 03:21:34;;;;;;;1999.90;999.90;;;8.00;99.90;;;;;;5112313;28;20491;-66
2023/10/17 03:24:04;;;;;;;1999.90;999.90;;;8.00;99.90;;;;;;5112304;28;20641;-66
2023/10/17 03:26:39;;;;;;;1999.90;999.90;;;8.00;99.90;;;;;;5112255;28;20907;-66
2023/10/17 03:29:14;;;;;;;1999.90;999.90;;;7.90;99.90;;;;;;5112099;28;20460;-65
2023/10/17 03:31:45;;;;;;;1999.90;999.90;;;7.90;99.90;;;;;;5112408;28;20494;-66
2023/10/17 03:34:12;;;;;;;1999.90;999.90;;;7.90;99.90;;;;;;5112203;28;20441;-67
2023/10/17 03:39:21;;;;;;;1999.90;999.90;;;7.80;99.90;;;;;;5111997;28;20754;-68
2023/10/17 03:41:48;;;;;;;1999.90;999.90;;;7.80;99.90;;;;;;5111961;28;20429;-67
2023/10/17 03:44:15;;;;;;;1999.90;999.90;;;7.80;99.90;;;;;;5112132;28;20403;-67
2023/10/17 03:46:46;;;;;;;1999.90;999.90;;;7.80;99.90;;;;;;5112215;28;20551;-67
2023/10/17 03:49:16;;;;;;;1999.90;999.90;;;7.80;99.90;;;;;;5111914;28;20940;-67
2023/10/17 03:51:46;;;;;;;1999.90;999.90;;;7.90;99.90;;;;;;5112078;28;20444;-65
2023/10/17 03:54:17;;;;;;;1999.90;999.90;;;7.90;99.90;;;;;;5112015;28;20408;-66
2023/10/17 03:56:49;;;;;;;1999.90;999.90;;;7.90;99.90;;;;;;5112221;28;20406;-67
2023/10/17 04:01:47;;;;;;;1999.90;999.90;;;7.80;99.90;;;;;;5116073;28;20563;-66
2023/10/17 04:04:13;;;;;;;1999.90;999.90;;;7.90;99.90;;;;;;5116088;28;20185;-66
2023/10/17 04:06:42;;;;;;;1999.90;999.90;;;7.90;99.90;;;;;;5115833;28;20772;-66
2023/10/17 04:09:27;;;;;;;1999.90;999.90;;;7.90;99.90;;;;;;5115955;28;20543;-66
2023/10/17 04:11:55;;;;;;;1999.90;999.90;;;7.80;99.90;;;;;;5115751;28;20445;-66
2023/10/17 04:14:29;;;;;;;1999.90;999.90;;;7.80;99.90;;;;;;5115910;28;20399;-65
2023/10/17 04:16:55;;;;;;;1999.90;999.90;;;7.70;99.90;;;;;;5115826;28;20490;-66
2023/10/17 04:19:21;;;;;;;1999.90;999.90;;;7.80;99.90;;;;;;5115470;28;20424;-66
2023/10/17 04:24:38;;;;;;;1999.90;999.90;;;7.80;99.90;;;;;;5115686;28;20642;-66
2023/10/17 04:29:38;;;;;;;1999.90;999.90;;;7.80;99.90;;;;;;5115375;28;20396;-65
2023/10/17 04:32:09;;;;;;;1999.90;999.90;;;7.80;99.90;;;;;;5115585;28;20456;-66
2023/10/17 04:34:35;;;;;;;1999.90;999.90;;;7.80;99.90;;;;;;5115618;28;20415;-66
2023/10/17 04:37:04;;;;;;;1999.90;999.90;;;7.80;99.90;;;;;;5115435;28;20891;-66
2023/10/17 04:44:34;;;;;;;1999.90;999.90;;;7.80;99.90;;;;;;5115466;28;20901;-67
2023/10/17 04:49:31;;;;;;;1999.90;999.90;;;7.90;99.90;;;;;;5115271;28;20413;-66
2023/10/17 04:52:07;;;;;;;1999.90;999.90;;;7.80;99.90;;;;;;5115055;28;20424;-66
2023/10/17 04:57:04;;;;;;;1999.90;999.90;;;7.80;99.90;;;;;;5115343;28;20433;-67
2023/10/17 06:18:31;;;;;;;1999.90;999.90;;;7.80;99.90;;;;;;5092833;28;20911;-65
2023/10/17 06:30:26;;;;;;;1999.90;999.90;;;7.80;99.90;;;;;;5092743;28;20397;-67
2023/10/17 06:34:14;;;;;;;1999.90;999.90;;;7.80;99.90;;;;;;5104720;28;20479;-66
2023/10/17 06:36:43;;;;;;;1999.90;999.90;;;7.90;99.90;;;;;;5094896;28;20403;-67
2023/10/17 06:39:36;;;;;;;1999.90;999.90;;;7.90;99.90;;;;;;5092519;28;20392;-66
2023/10/17 06:42:17;;;;;;;1999.90;999.90;;;7.90;99.90;;;;;;5096017;28;20427;-66
2023/10/17 06:47:31;;;;;;;1999.90;999.90;;;8.00;99.90;;;;;;5113015;28;20510;-66
2023/10/17 06:52:39;;;;;;;1999.90;999.90;;;8.10;99.90;;;;;;5088533;28;20429;-65
2023/10/17 06:55:07;;;;;;;1999.90;999.90;;;8.20;99.90;;;;;;5091947;28;20409;-65
2023/10/17 06:57:35;;;;;;;1999.90;999.90;;;8.20;99.90;;;;;;5091511;28;20416;-67
2023/10/17 07:00:24;;;;;;;1999.90;999.90;;;8.20;99.90;;;;;;5092393;28;20454;-66
2023/10/17 07:02:50;;;;;;;1999.90;999.90;;;8.20;99.90;;;;;;5091825;28;20442;-64
2023/10/17 07:05:22;;;;;;;1999.90;999.90;;;8.20;99.90;;;;;;5091578;28;20417;-65
2023/10/17 07:07:54;;;;;;;1999.90;999.90;;;8.20;99.90;;;;;;5087227;28;20826;-65
2023/10/17 07:13:27;;;;;;;1999.90;999.90;;;8.30;99.90;;;;;;5112078;28;20432;-66
2023/10/17 07:15:54;;;;;;;1999.90;999.90;;;8.30;99.90;;;;;;5112083;28;20448;-68
2023/10/17 07:23:42;;;;;;;1999.90;999.90;;;8.50;99.90;;;;;;5111616;28;20408;-66
2023/10/17 07:26:18;;;;;;;1999.90;999.90;;;8.50;99.90;;;;;;5110681;28;20406;-67
2023/10/17 07:28:50;;;;;;;1999.90;999.90;;;8.60;99.90;;;;;;5111735;28;20451;-66
2023/10/17 07:31:16;;;;;;;1999.90;999.90;;;8.60;99.90;;;;;;5112055;28;20485;-67
2023/10/17 07:33:43;;;;;;;1999.90;999.90;;;8.70;99.90;;;;;;5107681;28;20416;-66
2023/10/17 07:36:18;;;;;;;1999.90;999.90;;;8.70;99.90;;;;;;5111834;28;20851;-66
2023/10/17 07:38:44;;;;;;;1999.90;999.90;;;8.70;99.90;;;;;;5118417;28;20865;-67
2023/10/17 07:41:14;;;;;;;1999.90;999.90;;;8.80;99.90;;;;;;5118279;28;20535;-65
2023/10/17 07:43:46;;;;;;;1999.90;999.90;;;8.90;99.90;;;;;;5108973;28;20457;-67
2023/10/17 07:46:16;;;;;;;1999.90;999.90;;;8.90;99.90;;;;;;5111961;28;20513;-67
2023/10/17 07:48:48;;;;;;;1999.90;999.90;;;8.90;99.90;;;;;;5118218;28;20502;-67
2023/10/17 07:51:15;;;;;;;1999.90;999.90;;;9.00;99.90;;;;;;5115645;28;20467;-65
2023/10/17 07:53:50;;;;;;;1999.90;999.90;;;9.10;99.90;;;;;;5107155;28;20411;-65
2023/10/17 07:56:21;;;;;;;1999.90;999.90;;;9.20;99.90;;;;;;5103914;28;20496;-67
2023/10/17 07:58:56;;;;;;;1999.90;999.90;;;9.20;99.90;;;;;;5116345;28;20979;-66
2023/10/17 08:01:32;;;;;;;1999.90;999.90;;;9.30;99.90;;;;;;5113774;28;20426;-67
2023/10/17 08:04:13;;;;;;;1999.90;999.90;;;9.30;99.90;;;;;;5109371;28;20420;-67
2023/10/17 08:06:39;;;;;;;1999.90;999.90;;;9.40;99.90;;;;;;5118657;27;20487;-66
2023/10/17 08:09:16;;;;;;;1999.90;999.90;;;9.50;99.90;;;;;;5118432;28;20827;-66
2023/10/17 08:11:42;;;;;;;1999.90;999.90;;;9.50;99.90;;;;;;5116426;28;20526;-66
2023/10/17 08:14:11;;;;;;;1999.90;999.90;;;9.60;99.90;;;;;;5104791;28;20501;-67
2023/10/17 08:16:40;;;;;;;1999.90;999.90;;;9.70;99.90;;;;;;5093770;28;20502;-67
2023/10/17 08:19:29;;;;;;;1999.90;999.90;;;9.70;99.90;;;;;;5092671;28;20822;-67
2023/10/17 08:24:34;;;;;;;1999.90;999.90;;;9.80;99.90;;;;;;5107070;28;20418;-66
2023/10/17 08:29:49;;;;;;;1999.90;999.90;;;9.90;99.90;;;;;;5114470;28;20404;-66
2023/10/17 08:35:03;;;;;;;1999.90;999.90;;;10.00;99.90;;;;;;5113464;28;20502;-66
2023/10/17 08:37:30;;;;;;;1999.90;999.90;;;10.00;99.90;;;;;;5113385;28;20432;-68
2023/10/17 08:39:57;;;;;;;1999.90;999.90;;;9.90;99.90;;;;;;5113165;28;20465;-65
2023/10/17 08:42:49;;;;;;;1999.90;999.90;;;10.00;99.90;;;;;;5087025;28;20451;-69
2023/10/17 08:45:15;;;;;;;1999.90;999.90;;;9.90;99.90;;;;;;5089961;28;20827;-67
2023/10/17 08:47:42;;;;;;;1999.90;999.90;;;9.90;99.90;;;;;;5093116;28;20456;-67
2023/10/17 08:50:09;;;;;;;1999.90;999.90;;;9.90;99.90;;;;;;5094092;28;20411;-68
2023/10/17 08:52:39;;;;;;;1999.90;999.90;;;10.00;99.90;;;;;;5089058;28;20457;-67
2023/10/17 08:55:05;;;;;;;1999.90;999.90;;;10.10;99.90;;;;;;5085915;28;20776;-67
2023/10/17 08:57:37;;;;;;;1999.90;999.90;;;10.20;99.90;;;;;;5089862;28;20423;-66
2023/10/17 09:02:32;;;;;;;1999.90;999.90;;;10.40;99.90;;;;;;5093581;28;20833;-66
2023/10/17 09:05:18;;;;;;;1999.90;999.90;;;10.70;99.90;;;;;;5094155;28;20444;-67
2023/10/17 09:07:48;;;;;;;1999.90;999.90;;;10.70;99.90;;;;;;5093418;28;20448;-67
2023/10/17 09:10:28;;;;;;;1999.90;999.90;;;10.90;99.90;;;;;;5093468;28;20417;-67
2023/10/17 09:15:57;;;;;;;1999.90;999.90;;;11.10;99.90;;;;;;5090303;28;20415;-67
2023/10/17 09:18:40;;;;;;;1999.90;999.90;;;11.20;99.90;;;;;;5093287;28;20821;-67
2023/10/17 09:21:06;;;;;;;1999.90;999.90;;;11.30;99.90;;;;;;5093624;28;20412;-67
2023/10/17 09:23:31;;;;;;;1999.90;999.90;;;11.20;99.90;;;;;;5093627;28;20412;-67
2023/10/17 09:26:07;;;;;;;1999.90;999.90;;;11.30;99.90;;;;;;5093249;28;20783;-67
2023/10/17 09:28:33;;;;;;;1999.90;999.90;;;11.30;99.90;;;;;;5093120;28;20629;-67
2023/10/17 09:31:06;;;;;;;1999.90;999.90;;;11.70;99.90;;;;;;5093469;28;20511;-67
2023/10/17 09:33:33;;;;;;;1999.90;999.90;;;11.50;99.90;;;;;;5093302;28;20404;-67
2023/10/17 09:36:04;;;;;;;1999.90;999.90;;;11.60;99.90;;;;;;5093206;28;20404;-67
2023/10/17 09:38:34;;;;;;;1999.90;999.90;;;11.80;99.90;;;;;;5093381;28;20405;-67
2023/10/17 09:41:05;;;;;;;1999.90;999.90;;;11.90;99.90;;;;;;5092995;28;20408;-67
2023/10/17 09:43:30;;;;;;;1999.90;999.90;;;11.90;99.90;;;;;;5093417;28;20408;-67
2023/10/17 09:46:03;;;;;;;1999.90;999.90;;;11.80;99.90;;;;;;5093113;28;20419;-68
2023/10/17 09:48:34;;;;;;;1999.90;999.90;;;11.80;99.90;;;;;;5092273;28;20328;-68
2023/10/17 09:51:01;;;;;;;1999.90;999.90;;;12.10;99.90;;;;;;5093196;28;20824;-67
2023/10/17 09:53:35;;;;;;;1999.90;999.90;;;11.80;99.90;;;;;;5085113;28;20451;-68
2023/10/17 09:56:06;;;;;;;1999.90;999.90;;;11.70;99.90;;;;;;5092491;28;20412;-67
2023/10/17 09:58:36;;;;;;;1999.90;999.90;;;11.60;99.90;;;;;;5092866;28;20408;-67
2023/10/17 10:01:10;;;;;;;1999.90;999.90;;;11.60;99.90;;;;;;5092911;28;20441;-67
2023/10/17 10:03:37;;;;;;;1999.90;999.90;;;11.80;99.90;;;;;;5092784;28;21113;-67
2023/10/17 10:06:31;;;;;;;1999.90;999.90;;;11.70;99.90;;;;;;5092717;28;20458;-67
2023/10/17 10:09:14;;;;;;;1999.90;999.90;;;11.70;99.90;;;;;;5092114;28;20453;-67
2023/10/17 10:11:49;;;;;;;1999.90;999.90;;;11.60;99.90;;;;;;5092536;28;21084;-67
2023/10/17 10:14:16;;;;;;;1999.90;999.90;;;11.60;99.90;;;;;;5092574;28;20903;-67
2023/10/17 10:16:57;;;;;;;1999.90;999.90;;;11.50;99.90;;;;;;5092500;28;20401;-67
2023/10/17 10:19:23;;;;;;;1999.90;999.90;;;11.60;99.90;;;;;;5092198;28;20925;-67
2023/10/17 10:21:59;;;;;;;1999.90;999.90;;;11.80;99.90;;;;;;5092407;28;20971;-66
2023/10/17 10:24:31;;;;;;;1999.90;999.90;;;11.90;99.90;;;;;;5084008;28;20424;-67
2023/10/17 10:27:15;;;;;;;1999.90;999.90;;;12.10;99.90;;;;;;5092107;28;20459;-67
2023/10/17 10:29:45;;;;;;;1999.90;999.90;;;12.40;99.90;;;;;;5092104;28;20406;-67
2023/10/17 10:32:30;;;;;;;1999.90;999.90;;;12.50;99.90;;;;;;5091888;28;21000;-67
2023/10/17 10:34:56;;;;;;;1999.90;999.90;;;12.60;99.90;;;;;;5090510;28;20450;-67
2023/10/17 10:37:22;;;;;;;1999.90;999.90;;;12.70;99.90;;;;;;5092208;28;20417;-67
2023/10/17 10:40:26;;;;;;;1999.90;999.90;;;12.80;99.90;;;;;;5091563;28;20667;-67
2023/10/17 10:42:53;;;;;;;1999.90;999.90;;;13.00;99.90;;;;;;5091276;28;20226;-67
2023/10/17 10:45:56;;;;;;;1999.90;999.90;;;13.00;99.90;;;;;;5090704;28;20420;-67
2023/10/17 10:48:22;;;;;;;1999.90;999.90;;;13.10;99.90;;;;;;5090041;28;20456;-67
2023/10/17 10:50:55;;;;;;;1999.90;999.90;;;13.20;98.70;;;;;;5090249;28;20419;-66
2023/10/17 10:53:25;;;;;;;1999.90;999.90;;;13.20;97.50;;;;;;5090361;28;20179;-67
2023/10/17 10:55:59;;;;;;;1999.90;999.90;;;13.20;97.60;;;;;;5090805;28;20469;-67
2023/10/17 10:58:26;;;;;;;1999.90;999.90;;;13.30;97.90;;;;;;5091107;28;20413;-67
2023/10/17 11:00:54;;;;;;;1999.90;999.90;;;13.30;99.90;;;;;;5085391;28;20420;-67
2023/10/17 11:03:23;;;;;;;1999.90;999.90;;;13.50;98.30;;;;;;5091653;28;20420;-67
2023/10/17 11:05:57;;;;;;;1999.90;999.90;;;13.60;97.90;;;;;;5091788;28;20412;-67
2023/10/17 11:08:24;;;;;;;1999.90;999.90;;;13.80;96.40;;;;;;5090183;28;21004;-66
2023/10/17 11:10:50;;;;;;;1999.90;999.90;;;14.10;99.90;;;;;;5091212;28;20450;-67
2023/10/17 11:13:16;;;;;;;1999.90;999.90;;;14.00;92.60;;;;;;5091479;28;20411;-68
2023/10/17 11:15:45;;;;;;;1999.90;999.90;;;14.00;91.20;;;;;;5091384;28;20483;-67
2023/10/17 11:18:11;;;;;;;1999.90;999.90;;;14.30;90.50;;;;;;5091526;28;20513;-67
2023/10/17 11:20:41;;;;;;;1999.90;999.90;;;14.60;85.40;;;;;;5091471;28;20402;-67
2023/10/17 11:23:13;;;;;;;1999.90;999.90;;;15.30;84.60;;;;;;5091424;28;20841;-67
2023/10/17 11:25:45;;;;;;;1999.90;999.90;;;16.20;82.20;;;;;;5091476;28;20428;-67
2023/10/17 11:28:10;;;;;;;1999.90;999.90;;;17.10;60.40;;;;;;5091065;28;20954;-67
2023/10/17 11:30:42;;;;;;;1999.90;999.90;;;17.90;50.20;;;;;;5090930;28;20413;-67
2023/10/17 11:33:14;;;;;;;1999.90;999.90;;;18.60;36.50;;;;;;5091340;28;20483;-67
2023/10/17 11:35:51;;;;;;;1999.90;999.90;;;19.20;31.10;;;;;;5091505;28;20415;-67
2023/10/17 11:38:40;;;;;;;1999.90;999.90;;;19.80;25.00;;;;;;5091145;28;20505;-67
2023/10/17 11:41:07;;;;;;;1999.90;999.90;;;20.50;19.50;;;;;;5091381;28;20840;-67
2023/10/17 11:43:37;;;;;;;1999.90;999.90;;;20.80;11.80;;;;;;5095141;28;20458;-68
2023/10/17 11:46:03;;;;;;;1999.90;999.90;;;21.20;9.90;;;;;;5097018;28;20410;-69
2023/10/17 11:48:32;;;;;;;1999.90;999.90;;;21.60;7.40;;;;;;5096357;28;20457;-68
2023/10/17 11:51:07;;;;;;;1999.90;999.90;;;21.80;1.60;;;;;;5097610;28;20497;-67
2023/10/17 11:53:33;;;;;;;1999.90;999.90;;;22.20;1.00;;;;;;5095809;28;20417;-67
2023/10/17 11:56:01;;;;;;;1999.90;999.90;;;22.50;1.00;;;;;;5095468;28;20419;-68
2023/10/17 11:58:29;;;;;;;1999.90;999.90;;;22.70;1.00;;;;;;5095172;28;20491;-68
2023/10/17 12:00:56;;;;;;;1999.90;999.90;;;23.10;1.00;;;;;;5094779;28;20776;-67
2023/10/17 12:03:23;;;;;;;1999.90;999.90;;;23.60;1.00;;;;;;5095080;28;20423;-68
2023/10/17 12:05:49;;;;;;;1999.90;999.90;;;23.80;1.00;;;;;;5094725;28;20412;-69
2023/10/17 12:08:22;;;;;;;1999.90;999.90;;;23.70;1.00;;;;;;5093092;28;20481;-68
2023/10/17 12:10:53;;;;;;;1999.90;999.90;;;24.00;1.00;;;;;;5101898;28;20182;-68
2023/10/17 12:13:19;;;;;;;1999.90;999.90;;;24.30;1.00;;;;;;5086710;28;20440;-68
2023/10/17 12:15:45;;;;;;;1999.90;999.90;;;24.10;1.00;;;;;;5093659;28;20383;-67
2023/10/17 12:18:12;;;;;;;1999.90;999.90;;;24.20;1.00;;;;;;5092578;28;20470;-68
2023/10/17 12:20:40;;;;;;;1999.90;999.90;;;24.70;1.00;;;;;;5095333;28;20409;-68
2023/10/17 12:23:10;;;;;;;1999.90;999.90;;;24.90;1.00;;;;;;5095911;28;20493;-68
2023/10/17 12:25:37;;;;;;;1999.90;999.90;;;25.10;1.00;;;;;;5096465;28;20375;-67
2023/10/17 12:28:03;;;;;;;1999.90;999.90;;;25.20;1.00;;;;;;5096127;28;20455;-67
2023/10/17 12:30:35;;;;;;;1999.90;999.90;;;25.30;1.00;;;;;;5096290;28;20963;-68
2023/10/17 12:33:02;;;;;;;1999.90;999.90;;;25.20;1.00;;;;;;5096567;28;20501;-68
2023/10/17 12:35:30;;;;;;;1999.90;999.90;;;25.20;1.00;;;;;;5096792;28;20943;-68
2023/10/17 12:38:06;;;;;;;1999.90;999.90;;;25.30;1.00;;;;;;5093632;28;20821;-68
2023/10/17 12:40:31;;;;;;;1999.90;999.90;;;25.60;1.00;;;;;;5090247;28;20424;-68
2023/10/17 12:42:57;;;;;;;1999.90;999.90;;;25.60;1.00;;;;;;5097029;28;20518;-66
2023/10/17 12:45:24;;;;;;;1999.90;999.90;;;25.40;1.00;;;;;;5097312;28;20163;-68
2023/10/17 12:47:50;;;;;;;1999.90;999.90;;;25.50;1.00;;;;;;5086275;28;20206;-65
2023/10/17 12:50:18;;;;;;;1999.90;999.90;;;25.40;1.00;;;;;;5089425;28;20390;-69
2023/10/17 12:52:44;;;;;;;1999.90;999.90;;;25.40;1.00;;;;;;5094263;28;20572;-68
2023/10/17 12:55:11;;;;;;;1999.90;999.90;;;25.30;1.00;;;;;;5094240;28;20389;-68
2023/10/17 12:57:38;;;;;;;1999.90;999.90;;;25.50;1.00;;;;;;5094235;28;20420;-68
2023/10/17 13:00:11;;;;;;;1999.90;999.90;;;25.70;1.00;;;;;;5094314;28;20387;-69
2023/10/17 13:02:41;;;;;;;1999.90;999.90;;;25.60;1.00;;;;;;5087926;28;21018;-69
2023/10/17 13:05:09;;;;;;;1999.90;999.90;;;25.20;1.00;;;;;;5074901;28;20475;-69
2023/10/17 13:07:35;;;;;;;1999.90;999.90;;;25.00;1.00;;;;;;5075010;28;20461;-69
2023/10/17 13:10:01;;;;;;;1999.90;999.90;;;24.70;1.00;;;;;;5076646;28;20445;-68
2023/10/17 13:12:27;;;;;;;1999.90;999.90;;;24.90;1.00;;;;;;5088347;28;20902;-69
2023/10/17 13:14:53;;;;;;;1999.90;999.90;;;25.30;1.00;;;;;;5093750;28;20167;-69
2023/10/17 13:17:18;;;;;;;1999.90;999.90;;;25.80;1.00;;;;;;5095270;28;20170;-69
2023/10/17 13:19:48;;;;;;;1999.90;999.90;;;26.20;1.00;;;;;;5100127;28;20174;-69
2023/10/17 13:22:17;;;;;;;1999.90;999.90;;;26.70;1.00;;;;;;5095968;28;20217;-69
2023/10/17 13:24:45;;;;;;;1999.90;999.90;;;26.90;1.00;;;;;;5084340;28;20805;-68
2023/10/17 13:27:11;;;;;;;1999.90;999.90;;;26.80;1.00;;;;;;5093752;28;20433;-68
2023/10/17 13:29:36;;;;;;;1999.90;999.90;;;27.10;1.00;;;;;;5094183;28;20747;-68
2023/10/17 13:32:07;;;;;;;1999.90;999.90;;;27.00;1.00;;;;;;5092926;28;20194;-66
2023/10/17 13:34:34;;;;;;;1999.90;999.90;;;27.10;1.00;;;;;;5074481;28;20221;-68
2023/10/17 13:37:04;;;;;;;1999.90;999.90;;;27.40;1.00;;;;;;5073910;28;20436;-67
2023/10/17 13:39:33;;;;;;;1999.90;999.90;;;27.80;1.00;;;;;;5074057;28;20413;-68
2023/10/17 13:42:02;;;;;;;1999.90;999.90;;;28.00;1.00;;;;;;5073681;28;20410;-68
2023/10/17 13:44:28;;;;;;;1999.90;999.90;;;28.30;1.00;;;;;;5074059;28;20463;-68
2023/10/17 13:46:54;;;;;;;1999.90;999.90;;;28.60;1.00;;;;;;5078542;28;20403;-68
2023/10/17 13:49:20;;;;;;;1999.90;999.90;;;28.60;1.00;;;;;;5092542;28;20416;-69
2023/10/17 13:51:46;;;;;;;1999.90;999.90;;;28.50;1.00;;;;;;5089849;28;20489;-68
2023/10/17 13:54:16;;;;;;;1999.90;999.90;;;28.90;1.00;;;;;;5093344;28;20182;-68
2023/10/17 13:56:42;;;;;;;1999.90;999.90;;;29.00;1.00;;;;;;5093797;28;20396;-68
2023/10/17 13:59:09;;;;;;;1999.90;999.90;;;28.90;1.00;;;;;;5092973;28;20495;-68
2023/10/17 14:01:42;;;;;;;1999.90;999.90;;;29.10;1.00;;;;;;5093285;28;20485;-68
2023/10/17 14:04:11;;;;;;;1999.90;999.90;;;28.90;1.00;;;;;;5093495;28;20416;-68
2023/10/17 14:06:39;;;;;;;1999.90;999.90;;;28.60;1.00;;;;;;5093016;28;20412;-67
2023/10/17 14:09:14;;;;;;;1999.90;999.90;;;28.10;1.00;;;;;;5092917;28;20438;-66
2023/10/17 14:11:43;;;;;;;1999.90;999.90;;;28.20;1.00;;;;;;5093217;28;20472;-67
2023/10/17 14:14:10;;;;;;;1999.90;999.90;;;27.90;1.00;;;;;;5093088;28;20405;-67
2023/10/17 14:16:40;;;;;;;1999.90;999.90;;;28.00;1.00;;;;;;5093214;28;20423;-68
2023/10/17 14:19:15;;;;;;;1999.90;999.90;;;28.10;1.00;;;;;;5092922;28;20395;-69
2023/10/17 14:21:45;;;;;;;1999.90;999.90;;;28.20;1.00;;;;;;5092883;28;20489;-67
2023/10/17 14:24:11;;;;;;;1999.90;999.90;;;28.40;1.00;;;;;;5093154;28;20404;-67
2023/10/17 14:26:37;;;;;;;1999.90;999.90;;;28.70;1.00;;;;;;5092746;28;20477;-69
2023/10/17 14:29:03;;;;;;;1999.90;999.90;;;28.70;1.00;;;;;;5092376;28;20262;-68
2023/10/17 14:31:31;;;;;;;1999.90;999.90;;;29.00;1.00;;;;;;5092805;28;20440;-68
2023/10/17 14:34:01;;;;;;;1999.90;999.90;;;29.30;1.00;;;;;;5092769;28;20174;-66
2023/10/17 14:36:27;;;;;;;1999.90;999.90;;;29.10;1.00;;;;;;5092260;28;20462;-68
2023/10/17 14:38:53;;;;;;;1999.90;999.90;;;28.20;1.00;;;;;;5092292;28;20394;-69
2023/10/17 14:41:19;;;;;;;1999.90;999.90;;;27.70;1.00;;;;;;5092530;28;20428;-67
2023/10/17 14:43:49;;;;;;;1999.90;999.90;;;27.60;1.00;;;;;;5091570;28;20426;-68
2023/10/17 14:46:16;;;;;;;1999.90;999.90;;;28.00;1.00;;;;;;5094998;28;20921;-67
2023/10/17 14:48:44;;;;;;;1999.90;999.90;;;28.20;1.00;;;;;;5096943;28;20790;-68